createdAt,value
2023-01-11T00:00:02.526Z,10.60
2023-01-11T00:03:02.132Z,8.60
2023-01-11T00:05:30.504Z,10.20
2023-01-11T00:07:58.990Z,7.60
2023-01-11T00:10:27.142Z,8.10
2023-01-11T00:12:54.944Z,10.70
2023-01-11T00:15:22.750Z,9.20
2023-01-11T00:17:50.582Z,7.00
2023-01-11T00:20:19.465Z,8.40
2023-01-11T00:22:47.326Z,7.50
2023-01-11T00:25:15.159Z,7.70
2023-01-11T00:27:42.945Z,7.10
2023-01-11T00:30:11.843Z,7.50
2023-01-11T00:32:39.927Z,11.30
2023-01-11T00:35:09.573Z,9.00
2023-01-11T00:37:38.247Z,8.70
2023-01-11T00:40:07.865Z,7.70
2023-01-11T00:42:54.170Z,7.20
2023-01-11T00:45:40.873Z,8.70
2023-01-11T00:48:10.760Z,8.90
2023-01-11T00:50:41.372Z,8.60
2023-01-11T00:53:09.787Z,7.90
2023-01-11T00:55:37.703Z,6.60
2023-01-11T00:58:05.698Z,8.00
2023-01-11T01:00:33.640Z,6.60
2023-01-11T01:03:01.528Z,8.30
2023-01-11T01:05:29.570Z,8.60
2023-01-11T01:07:57.463Z,7.00
2023-01-11T01:10:25.719Z,8.20
2023-01-11T01:13:12.092Z,6.70
2023-01-11T01:15:40.182Z,9.00
2023-01-11T01:18:08.144Z,7.70
2023-01-11T01:20:36.128Z,8.20
2023-01-11T01:23:04.022Z,6.10
2023-01-11T01:25:32.092Z,6.70
2023-01-11T01:28:00.107Z,7.80
2023-01-11T01:30:28.111Z,6.00
2023-01-11T01:32:56.018Z,7.20
2023-01-11T01:35:23.971Z,7.40
2023-01-11T01:37:51.871Z,8.00
2023-01-11T01:40:19.951Z,8.70
2023-01-11T01:42:47.781Z,7.20
2023-01-11T01:45:24.768Z,7.10
2023-01-11T01:48:02.380Z,7.60
2023-01-11T01:50:43.446Z,6.90
2023-01-11T01:53:16.198Z,6.10
2023-01-11T01:55:49.169Z,5.80
2023-01-11T01:58:21.773Z,7.20
2023-01-11T02:00:50.035Z,8.00
2023-01-11T02:03:23.275Z,8.10
2023-01-11T02:05:53.770Z,7.70
2023-01-11T02:08:34.524Z,6.60
2023-01-11T02:11:03.877Z,6.90
2023-01-11T02:13:46.209Z,7.60
2023-01-11T02:16:14.234Z,7.10
2023-01-11T02:18:42.232Z,8.20
2023-01-11T02:21:25.696Z,6.80
2023-01-11T02:24:15.714Z,7.60
2023-01-11T02:27:08.224Z,6.20
2023-01-11T02:30:03.492Z,6.70
2023-01-11T02:33:15.677Z,5.90
2023-01-11T02:36:08.636Z,6.20
2023-01-11T02:38:41.996Z,5.80
2023-01-11T02:41:48.909Z,6.10
2023-01-11T02:44:41.530Z,5.50
2023-01-11T02:47:18.441Z,6.10
2023-01-11T02:49:53.871Z,5.30
2023-01-11T02:52:31.273Z,7.70
2023-01-11T02:55:01.287Z,6.80
2023-01-11T02:57:32.860Z,6.50
2023-01-11T03:00:02.279Z,6.70
2023-01-11T03:02:30.199Z,6.70
2023-01-11T03:04:58.074Z,6.10
2023-01-11T03:08:00.798Z,5.40
2023-01-11T03:10:40.730Z,5.00
2023-01-11T03:13:29.145Z,6.60
2023-01-11T03:16:22.170Z,7.30
2023-01-11T03:19:32.471Z,5.50
2023-01-11T03:22:18.770Z,6.40
2023-01-11T03:24:57.832Z,5.60
2023-01-11T03:27:37.002Z,5.40
2023-01-11T03:30:15.930Z,6.30
2023-01-11T03:32:48.889Z,6.40
2023-01-11T03:35:35.519Z,6.30
2023-01-11T03:38:30.669Z,5.80
2023-01-11T03:41:07.994Z,8.10
2023-01-11T03:43:40.493Z,5.80
2023-01-11T03:46:13.451Z,6.10
2023-01-11T03:48:57.803Z,6.10
2023-01-11T03:51:29.948Z,6.50
2023-01-11T03:54:00.904Z,6.50
2023-01-11T03:59:12.731Z,7.10
2023-01-11T04:01:40.670Z,6.10
2023-01-11T04:04:08.583Z,7.60
2023-01-11T04:06:38.178Z,7.40
2023-01-11T04:09:06.820Z,7.70
2023-01-11T04:11:34.711Z,5.80
2023-01-11T04:14:02.557Z,6.60
2023-01-11T04:16:30.627Z,5.50
2023-01-11T04:18:58.638Z,6.80
2023-01-11T04:21:26.706Z,7.00
2023-01-11T04:23:55.815Z,5.90
2023-01-11T04:26:23.694Z,6.10
2023-01-11T04:28:54.109Z,6.30
2023-01-11T04:31:22.350Z,7.30
2023-01-11T04:33:50.280Z,5.60
2023-01-11T04:36:18.260Z,5.70
2023-01-11T04:38:46.100Z,7.50
2023-01-11T04:41:32.492Z,7.20
2023-01-11T04:44:00.572Z,5.40
2023-01-11T04:46:28.475Z,8.00
2023-01-11T04:48:56.518Z,6.40
2023-01-11T04:51:24.732Z,6.30
2023-01-11T04:53:52.833Z,6.20
2023-01-11T04:56:20.787Z,9.10
2023-01-11T04:58:48.731Z,7.70
2023-01-11T05:01:18.853Z,5.80
2023-01-11T05:03:46.993Z,7.90
2023-01-11T05:06:15.838Z,6.20
2023-01-11T05:08:47.540Z,8.40
2023-01-11T05:11:16.930Z,6.10
2023-01-11T05:13:45.321Z,6.80
2023-01-11T05:16:23.749Z,6.10
2023-01-11T05:18:54.827Z,6.00
2023-01-11T05:21:32.693Z,6.60
2023-01-11T05:24:02.818Z,6.20
2023-01-11T05:26:34.891Z,7.80
2023-01-11T05:29:06.760Z,9.10
2023-01-11T05:31:37.160Z,5.70
2023-01-11T05:34:07.126Z,6.20
2023-01-11T05:36:36.129Z,9.00
2023-01-11T05:39:05.081Z,9.20
2023-01-11T05:41:34.358Z,7.90
2023-01-11T05:44:21.059Z,6.80
2023-01-11T05:46:49.393Z,6.70
2023-01-11T05:49:17.515Z,7.70
2023-01-11T05:51:45.435Z,6.60
2023-01-11T05:54:14.954Z,6.60
2023-01-11T05:56:43.025Z,5.50
2023-01-11T05:59:11.210Z,6.30
2023-01-11T06:01:39.744Z,6.80
2023-01-11T06:04:08.584Z,8.10
2023-01-11T06:06:37.137Z,11.80
2023-01-11T06:09:05.221Z,9.80
2023-01-11T06:11:33.168Z,7.10
2023-01-11T06:14:01.278Z,6.60
2023-01-11T06:16:29.364Z,7.90
2023-01-11T06:18:57.444Z,8.50
2023-01-11T06:21:25.598Z,7.60
2023-01-11T06:23:54.024Z,8.70
2023-01-11T06:26:22.931Z,9.40
2023-01-11T06:28:51.365Z,9.40
2023-01-11T06:31:19.891Z,7.00
2023-01-11T06:33:48.299Z,7.60
2023-01-11T06:36:16.959Z,9.00
2023-01-11T06:38:45.247Z,8.20
2023-01-11T06:41:13.571Z,8.90
2023-01-11T06:43:42.183Z,7.50
2023-01-11T06:46:12.824Z,9.70
2023-01-11T06:48:41.052Z,8.20
2023-01-11T06:51:12.066Z,11.80
2023-01-11T06:53:42.209Z,9.90
2023-01-11T06:56:13.975Z,9.70
2023-01-11T06:58:41.950Z,8.80
2023-01-11T07:01:10.064Z,14.30
2023-01-11T07:03:39.309Z,11.60
2023-01-11T07:06:07.474Z,11.30
2023-01-11T07:08:35.570Z,9.20
2023-01-11T07:11:04.093Z,8.20
2023-01-11T07:13:32.108Z,8.90
2023-01-11T07:16:00.082Z,8.10
2023-01-11T07:18:31.315Z,8.30
2023-01-11T07:23:27.229Z,10.30
2023-01-11T07:25:55.530Z,10.90
2023-01-11T07:28:23.465Z,10.20
2023-01-11T07:30:58.591Z,8.60
2023-01-11T07:33:28.256Z,7.40
2023-01-11T07:35:56.589Z,8.60
2023-01-11T07:38:24.503Z,8.90
2023-01-11T07:40:52.593Z,10.70
2023-01-11T07:43:23.475Z,8.80
2023-01-11T07:48:26.763Z,9.10
2023-01-11T07:50:55.328Z,8.00
2023-01-11T07:53:26.364Z,8.20
2023-01-11T07:55:57.680Z,9.80
2023-01-11T07:58:25.690Z,8.90
2023-01-11T08:00:53.637Z,8.50
2023-01-11T08:03:21.597Z,9.90
2023-01-11T08:05:51.762Z,8.40
2023-01-11T08:08:20.512Z,8.90
2023-01-11T08:11:09.156Z,7.60
2023-01-11T08:13:55.826Z,12.00
2023-01-11T08:16:23.981Z,7.60
2023-01-11T08:18:53.163Z,10.00
2023-01-11T08:21:24.261Z,10.80
2023-01-11T08:23:59.123Z,9.00
2023-01-11T08:26:27.986Z,12.50
2023-01-11T08:28:56.203Z,10.80
2023-01-11T08:31:25.914Z,12.80
2023-01-11T08:33:54.061Z,11.00
2023-01-11T08:36:22.043Z,9.80
2023-01-11T08:38:54.622Z,8.70
2023-01-11T08:41:24.138Z,7.60
2023-01-11T08:43:52.836Z,10.70
2023-01-11T08:46:20.875Z,8.20
2023-01-11T08:48:49.037Z,11.00
2023-01-11T08:51:18.199Z,9.70
2023-01-11T08:53:46.124Z,9.20
2023-01-11T08:56:14.040Z,9.30
2023-01-11T08:58:42.053Z,13.10
2023-01-11T09:01:10.145Z,9.70
2023-01-11T09:03:38.075Z,11.00
2023-01-11T09:06:06.157Z,9.90
2023-01-11T09:08:33.995Z,11.80
2023-01-11T09:11:01.894Z,10.30
2023-01-11T09:13:29.869Z,12.40
2023-01-11T09:15:58.207Z,9.30
2023-01-11T09:18:27.301Z,10.40
2023-01-11T09:20:55.390Z,10.90
2023-01-11T09:23:23.461Z,9.90
2023-01-11T09:25:51.560Z,10.20
2023-01-11T09:28:19.574Z,8.70
2023-01-11T09:30:47.456Z,8.80
2023-01-11T09:33:15.378Z,10.50
2023-01-11T09:35:46.257Z,8.70
2023-01-11T09:38:14.102Z,10.90
2023-01-11T09:41:20.577Z,13.50
2023-01-11T09:44:16.470Z,15.90
2023-01-11T09:46:51.410Z,12.10
2023-01-11T09:49:24.787Z,13.60
2023-01-11T09:52:13.277Z,17.30
2023-01-11T09:54:41.479Z,42.60
2023-01-11T09:57:30.943Z,52.40
2023-01-11T10:00:05.172Z,31.50
2023-01-11T10:03:01.247Z,25.70
2023-01-11T10:05:38.330Z,45.50
2023-01-11T10:18:26.161Z,30.00
2023-01-11T10:18:31.573Z,36.00
2023-01-11T10:20:40.938Z,16.60
2023-01-11T10:23:41.775Z,26.60
2023-01-11T10:26:24.309Z,22.20
2023-01-11T10:29:16.307Z,21.80
2023-01-11T10:32:13.663Z,18.10
2023-01-11T10:35:06.172Z,22.60
2023-01-11T10:37:54.612Z,18.60
2023-01-11T10:40:57.209Z,18.40
2023-01-11T10:43:26.990Z,16.10
2023-01-11T10:46:02.068Z,15.80
2023-01-11T10:48:50.958Z,16.50
2023-01-11T10:51:24.705Z,21.90
2023-01-11T10:54:18.045Z,17.50
2023-01-11T10:57:03.017Z,16.30
2023-01-11T10:59:50.773Z,69.00
2023-01-11T11:02:30.984Z,42.90
2023-01-11T11:05:05.512Z,25.90
2023-01-11T11:07:43.977Z,20.80
2023-01-11T11:10:19.416Z,20.60
2023-01-11T11:13:05.989Z,13.60
2023-01-11T11:15:33.889Z,13.90
2023-01-11T11:18:01.851Z,81.60
2023-01-11T11:20:33.075Z,26.60
2023-01-11T11:23:01.367Z,21.00
2023-01-11T11:25:43.385Z,36.40
2023-01-11T11:28:14.507Z,46.80
2023-01-11T11:33:17.258Z,18.90
2023-01-11T11:36:06.683Z,17.20
2023-01-11T11:38:40.632Z,17.90
2023-01-11T11:41:09.773Z,15.60
2023-01-11T11:43:43.631Z,19.40
2023-01-11T11:46:18.784Z,16.80
2023-01-11T11:49:16.910Z,22.30
2023-01-11T11:51:47.709Z,16.10
2023-01-11T11:54:19.061Z,15.10
2023-01-11T11:56:47.522Z,16.50
2023-01-11T11:59:20.253Z,18.50
2023-01-11T12:02:03.694Z,14.90
2023-01-11T12:04:36.527Z,26.40
2023-01-11T12:07:16.957Z,35.20
2023-01-11T12:09:52.379Z,15.50
2023-01-11T12:12:25.568Z,15.40
2023-01-11T12:15:16.223Z,21.30
2023-01-11T12:17:44.257Z,13.10
2023-01-11T12:20:21.367Z,19.50
2023-01-11T12:23:14.671Z,14.80
2023-01-11T12:26:22.822Z,16.60
2023-01-11T12:29:09.812Z,20.20
2023-01-11T12:32:01.069Z,22.40
2023-01-11T12:37:12.346Z,42.60
2023-01-11T12:39:58.204Z,22.40
2023-01-11T12:42:47.916Z,22.50
2023-01-11T12:45:30.250Z,17.30
2023-01-11T12:48:17.083Z,20.00
2023-01-11T12:50:47.772Z,18.20
2023-01-11T12:53:43.818Z,24.20
2023-01-11T12:56:21.072Z,20.00
2023-01-11T12:59:16.974Z,25.90
2023-01-11T13:01:59.218Z,27.00
2023-01-11T13:04:40.029Z,27.40
2023-01-11T13:07:35.507Z,25.10
2023-01-11T13:10:12.923Z,20.90
2023-01-11T13:12:54.305Z,32.30
2023-01-11T13:15:42.245Z,28.10
2023-01-11T13:18:19.110Z,26.50
2023-01-11T13:21:01.878Z,20.40
2023-01-11T13:23:44.585Z,20.40
2023-01-11T13:26:24.497Z,25.90
2023-01-11T13:29:05.099Z,18.70
2023-01-11T13:31:35.627Z,28.40
2023-01-11T13:34:12.710Z,42.90
2023-01-11T13:36:45.807Z,37.30
2023-01-11T13:39:28.630Z,28.60
2023-01-11T13:42:05.520Z,56.80
2023-01-11T13:44:46.524Z,44.70
2023-01-11T13:47:25.813Z,53.10
2023-01-11T13:50:00.639Z,51.30
2023-01-11T13:52:28.652Z,32.00
2023-01-11T13:55:26.487Z,44.40
2023-01-11T13:58:06.698Z,31.10
2023-01-11T14:00:49.528Z,35.30
2023-01-11T14:03:39.470Z,42.30
2023-01-11T14:06:23.295Z,29.30
2023-01-11T14:09:09.651Z,34.80
2023-01-11T14:11:58.617Z,29.10
2023-01-11T14:14:45.388Z,27.50
2023-01-11T14:17:31.605Z,29.50
2023-01-11T14:20:09.840Z,37.50
2023-01-11T14:23:00.143Z,34.70
2023-01-11T14:25:35.217Z,28.00
2023-01-11T14:28:32.419Z,31.90
2023-01-11T14:31:07.260Z,30.10
2023-01-11T14:33:35.288Z,30.00
2023-01-11T14:36:12.182Z,36.10
2023-01-11T14:39:08.141Z,39.50
2023-01-11T14:41:51.011Z,35.40
2023-01-11T14:45:13.600Z,39.90
2023-01-11T14:47:44.283Z,25.00
2023-01-11T14:50:27.453Z,22.70
2023-01-11T14:53:01.285Z,23.50
2023-01-11T14:55:35.459Z,25.30
2023-01-11T14:58:32.857Z,41.90
2023-01-11T15:01:04.292Z,35.30
2023-01-11T15:03:42.286Z,41.90
2023-01-11T15:06:17.042Z,39.40
2023-01-11T15:08:56.127Z,42.60
2023-01-11T15:11:33.527Z,39.80
2023-01-11T15:14:07.481Z,34.90
2023-01-11T15:16:56.517Z,36.90
2023-01-11T15:19:34.467Z,35.90
2023-01-11T15:22:05.945Z,35.90
2023-01-11T15:24:41.880Z,45.70
2023-01-11T15:27:34.005Z,37.40
2023-01-11T15:30:03.375Z,31.40
2023-01-11T15:32:44.060Z,35.00
2023-01-11T15:35:24.311Z,34.00
2023-01-11T15:37:58.684Z,32.90
2023-01-11T15:40:31.544Z,39.30
2023-01-11T15:43:33.124Z,33.30
2023-01-11T15:46:42.133Z,33.50
2023-01-11T15:49:41.864Z,32.90
2023-01-11T15:52:41.191Z,28.60
2023-01-11T15:55:30.727Z,29.20
2023-01-11T15:58:16.989Z,28.10
2023-01-11T16:01:06.675Z,30.30
2023-01-11T16:04:16.789Z,39.50
2023-01-11T16:06:47.717Z,38.80
2023-01-11T16:09:33.094Z,38.60
2023-01-11T16:12:08.614Z,35.50
2023-01-11T16:15:14.750Z,35.00
2023-01-11T16:17:46.234Z,49.20
2023-01-11T16:20:20.539Z,50.90
2023-01-11T16:23:07.590Z,52.60
2023-01-11T16:25:40.535Z,64.20
2023-01-11T16:28:17.690Z,57.00
2023-01-11T16:30:47.013Z,58.80
2023-01-11T16:33:24.396Z,55.80
2023-01-11T16:36:14.063Z,72.20
2023-01-11T16:39:02.671Z,75.40
2023-01-11T16:41:43.736Z,80.70
2023-01-11T16:44:27.487Z,71.10
2023-01-11T16:47:06.008Z,66.10
2023-01-11T16:49:34.038Z,66.40
2023-01-11T16:52:28.021Z,59.60
2023-01-11T16:55:00.412Z,59.10
2023-01-11T16:57:53.695Z,50.90
2023-01-11T17:00:36.267Z,65.90
2023-01-11T17:03:24.160Z,52.90
2023-01-11T17:06:07.286Z,54.50
2023-01-11T17:08:38.129Z,55.50
2023-01-11T17:11:41.905Z,50.30
2023-01-11T17:14:35.734Z,48.80
2023-01-11T17:17:07.733Z,47.30
2023-01-11T17:19:42.971Z,54.70
2023-01-11T17:22:22.010Z,54.60
2023-01-11T17:24:54.507Z,50.20
2023-01-11T17:27:33.272Z,51.60
2023-01-11T17:30:03.985Z,52.60
2023-01-11T17:32:31.853Z,44.40
2023-01-11T17:35:03.727Z,60.90
2023-01-11T17:37:32.553Z,90.70
2023-01-11T17:40:01.144Z,97.90
2023-01-11T17:42:47.811Z,109.90
2023-01-11T17:45:23.917Z,120.00
2023-01-11T17:47:54.547Z,123.10
2023-01-11T17:50:22.583Z,110.60
2023-01-11T17:52:55.265Z,97.60
2023-01-11T17:55:26.024Z,105.50
2023-01-11T17:58:11.813Z,115.10
2023-01-11T18:00:42.469Z,109.90
2023-01-11T18:03:18.633Z,88.80
2023-01-11T18:05:46.585Z,100.40
2023-01-11T18:08:20.414Z,102.60
2023-01-11T18:10:55.352Z,96.60
2023-01-11T18:13:31.464Z,79.70
2023-01-11T18:15:59.991Z,76.80
2023-01-11T18:18:43.756Z,67.70
2023-01-11T18:21:42.289Z,55.30
2023-01-11T18:24:10.767Z,61.20
2023-01-11T18:26:41.118Z,61.30
2023-01-11T18:29:37.143Z,73.00
2023-01-11T18:32:06.031Z,65.30
2023-01-11T18:34:34.027Z,65.20
2023-01-11T18:37:03.314Z,58.50
2023-01-11T18:39:31.284Z,64.70
2023-01-11T18:42:07.361Z,74.00
2023-01-11T18:44:37.316Z,90.40
2023-01-11T18:47:14.212Z,84.40
2023-01-11T18:49:42.638Z,91.10
2023-01-11T18:52:11.613Z,65.40
2023-01-11T18:54:42.354Z,65.90
2023-01-11T18:57:10.893Z,53.60
2023-01-11T18:59:39.923Z,46.20
2023-01-11T19:02:26.008Z,40.60
2023-01-11T19:04:56.254Z,39.00
2023-01-11T19:07:27.168Z,37.90
2023-01-11T19:09:55.228Z,37.70
2023-01-11T19:12:23.927Z,35.30
2023-01-11T19:14:52.459Z,32.50
2023-01-11T19:17:21.070Z,27.60
2023-01-11T19:19:49.268Z,29.40
2023-01-11T19:22:17.328Z,31.40
2023-01-11T19:24:45.253Z,42.70
2023-01-11T19:27:13.649Z,45.50
2023-01-11T19:29:41.969Z,46.00
2023-01-11T19:32:09.895Z,46.20
2023-01-11T19:34:39.734Z,49.10
2023-01-11T19:37:07.979Z,38.20
2023-01-11T19:39:36.489Z,42.60
2023-01-11T19:42:04.755Z,44.40
2023-01-11T19:44:34.753Z,42.60
2023-01-11T19:47:12.568Z,42.10
2023-01-11T19:49:42.508Z,39.40
2023-01-11T19:52:14.589Z,43.50
2023-01-11T19:54:43.708Z,45.40
2023-01-11T19:57:14.448Z,54.80
2023-01-11T20:02:12.983Z,50.60
2023-01-11T20:04:41.431Z,46.00
2023-01-11T20:07:11.375Z,55.90
2023-01-11T20:09:39.508Z,52.60
2023-01-11T20:12:10.367Z,51.20
2023-01-11T20:14:40.675Z,47.60
2023-01-11T20:17:09.081Z,53.50
2023-01-11T20:19:37.178Z,48.90
2023-01-11T20:22:05.597Z,43.30
2023-01-11T20:24:33.576Z,35.00
2023-01-11T20:27:02.760Z,33.10
2023-01-11T20:29:31.068Z,40.70
2023-01-11T20:32:21.147Z,33.70
2023-01-11T20:34:50.438Z,46.40
2023-01-11T20:37:18.511Z,47.20
2023-01-11T20:39:46.621Z,43.00
2023-01-11T20:42:14.600Z,41.70
2023-01-11T20:44:42.570Z,51.20
2023-01-11T20:47:10.593Z,47.40
2023-01-11T20:49:38.538Z,44.00
2023-01-11T20:52:06.512Z,52.70
2023-01-11T20:54:34.511Z,44.90
2023-01-11T20:57:05.739Z,37.20
2023-01-11T20:59:34.888Z,41.40
2023-01-11T21:02:02.937Z,40.20
2023-01-11T21:04:30.947Z,42.70
2023-01-11T21:06:58.872Z,49.40
2023-01-11T21:09:26.891Z,47.50
2023-01-11T21:11:54.941Z,54.20
2023-01-11T21:14:23.553Z,50.10
2023-01-11T21:16:55.053Z,49.40
2023-01-11T21:19:23.037Z,44.50
2023-01-11T21:21:51.378Z,47.30
2023-01-11T21:24:19.296Z,43.30
2023-01-11T21:26:48.455Z,47.80
2023-01-11T21:29:16.748Z,58.40
2023-01-11T21:31:44.735Z,72.30
2023-01-11T21:34:15.811Z,64.60
2023-01-11T21:36:45.827Z,70.80
2023-01-11T21:39:18.367Z,61.20
2023-01-11T21:42:03.742Z,46.50
2023-01-11T21:44:35.067Z,50.40
2023-01-11T21:47:05.431Z,50.80
2023-01-11T21:49:33.450Z,50.50
2023-01-11T21:52:01.640Z,51.70
2023-01-11T21:54:29.709Z,60.50
2023-01-11T21:56:58.310Z,62.00
2023-01-11T21:59:26.527Z,65.10
2023-01-11T22:01:54.459Z,62.00
2023-01-11T22:04:22.618Z,74.80
2023-01-11T22:06:54.107Z,80.20
2023-01-11T22:09:24.776Z,65.90
2023-01-11T22:11:53.087Z,64.60
2023-01-11T22:14:21.724Z,57.70
2023-01-11T22:16:49.956Z,55.20
2023-01-11T22:19:18.083Z,50.70
2023-01-11T22:21:46.015Z,63.50
2023-01-11T22:24:14.110Z,59.60
2023-01-11T22:26:42.233Z,62.40
2023-01-11T22:29:14.746Z,56.50
2023-01-11T22:31:51.087Z,52.80
2023-01-11T22:34:19.775Z,54.30
2023-01-11T22:36:48.126Z,43.10
2023-01-11T22:39:19.506Z,39.20
2023-01-11T22:41:48.650Z,35.80
2023-01-11T22:44:17.361Z,39.40
2023-01-11T22:46:45.306Z,39.70
2023-01-11T22:49:14.273Z,62.20
2023-01-11T22:51:43.986Z,60.20
2023-01-11T22:54:12.558Z,51.30
2023-01-11T22:56:40.846Z,43.60
2023-01-11T22:59:09.597Z,44.10
2023-01-11T23:01:42.232Z,47.70
2023-01-11T23:04:12.958Z,47.90
2023-01-11T23:06:42.698Z,38.80
2023-01-11T23:09:15.931Z,32.10
2023-01-11T23:12:04.517Z,36.10
2023-01-11T23:14:33.213Z,27.60
2023-01-11T23:17:07.534Z,30.40
2023-01-11T23:19:38.485Z,30.10
2023-01-11T23:24:37.470Z,32.50
2023-01-11T23:27:05.726Z,28.70
2023-01-11T23:29:33.883Z,28.60
2023-01-11T23:32:02.015Z,29.20
2023-01-11T23:34:30.062Z,25.20
2023-01-11T23:36:58.543Z,27.80
2023-01-11T23:39:26.817Z,26.30
2023-01-11T23:42:13.204Z,30.10
2023-01-11T23:44:41.216Z,28.30
2023-01-11T23:47:25.310Z,27.10
2023-01-11T23:50:00.460Z,27.90
2023-01-11T23:52:32.041Z,25.40
2023-01-11T23:55:00.754Z,23.70
2023-01-11T23:57:28.670Z,32.30
2023-01-11T23:59:56.899Z,28.10
